createdAt,value
2018-06-12T00:00:50.385Z,13.86
2018-06-12T00:01:50.123Z,13.91
2018-06-12T00:02:50.371Z,13.84
2018-06-12T00:03:50.375Z,13.86
2018-06-12T00:04:50.421Z,13.81
2018-06-12T00:05:50.098Z,13.88
2018-06-12T00:06:50.090Z,13.86
2018-06-12T00:07:50.344Z,13.84
2018-06-12T00:08:50.345Z,13.87
2018-06-12T00:09:50.331Z,13.87
2018-06-12T00:10:50.066Z,13.86
2018-06-12T00:11:50.313Z,13.81
2018-06-12T00:12:50.310Z,13.81
2018-06-12T00:13:50.302Z,13.81
2018-06-12T00:14:50.045Z,13.91
2018-06-12T00:15:50.290Z,13.83
2018-06-12T00:16:50.282Z,13.75
2018-06-12T00:17:50.278Z,13.78
2018-06-12T00:18:50.273Z,13.87
2018-06-12T00:19:50.022Z,13.87
2018-06-12T00:20:50.261Z,13.83
2018-06-12T00:21:49.998Z,13.88
2018-06-12T00:22:50.249Z,13.95
2018-06-12T00:23:49.988Z,13.9
2018-06-12T00:24:49.726Z,13.95
2018-06-12T00:25:50.230Z,13.95
2018-06-12T00:26:50.225Z,13.91
2018-06-12T00:27:50.218Z,13.97
2018-06-12T00:28:49.957Z,13.99
2018-06-12T00:29:50.210Z,13.99
2018-06-12T00:30:49.691Z,14.06
2018-06-12T00:31:49.936Z,13.99
2018-06-12T00:32:50.194Z,13.93
2018-06-12T00:33:50.186Z,14.03
2018-06-12T00:34:49.928Z,13.93
2018-06-12T00:35:50.172Z,13.94
2018-06-12T00:36:49.908Z,14.03
2018-06-12T00:37:50.157Z,13.99
2018-06-12T00:38:49.901Z,13.94
2018-06-12T00:39:50.152Z,13.91
2018-06-12T00:40:49.882Z,13.93
2018-06-12T00:41:49.877Z,13.93
2018-06-12T00:42:50.128Z,13.94
2018-06-12T00:43:50.130Z,13.88
2018-06-12T00:44:49.863Z,13.84
2018-06-12T00:45:49.855Z,13.84
2018-06-12T00:46:50.107Z,13.88
2018-06-12T00:47:50.099Z,13.97
2018-06-12T00:48:49.839Z,13.91
2018-06-12T00:49:49.834Z,13.97
2018-06-12T00:50:50.087Z,14.02
2018-06-12T00:51:50.075Z,14.09
2018-06-12T00:52:50.096Z,14.06
2018-06-12T00:53:50.062Z,14.08
2018-06-12T00:54:50.061Z,14.06
2018-06-12T00:55:50.052Z,14.12
2018-06-12T00:56:50.052Z,14.05
2018-06-12T00:57:50.038Z,14.08
2018-06-12T00:58:50.038Z,14.19
2018-06-12T00:59:50.032Z,14.12
2018-06-12T01:00:50.022Z,14.06
2018-06-12T01:01:49.760Z,14.12
2018-06-12T01:02:49.762Z,14.05
2018-06-12T01:03:50.003Z,14.19
2018-06-12T01:04:49.741Z,14.09
2018-06-12T01:05:50.004Z,14.16
2018-06-12T01:06:49.732Z,14.02
2018-06-12T01:07:49.985Z,14.02
2018-06-12T01:08:50.024Z,14.05
2018-06-12T01:09:49.965Z,14.05
2018-06-12T01:10:49.707Z,14.08
2018-06-12T01:11:49.700Z,14.01
2018-06-12T01:12:49.952Z,13.97
2018-06-12T01:13:49.687Z,14.03
2018-06-12T01:14:49.951Z,14.01
2018-06-12T01:15:49.934Z,14.06
2018-06-12T01:16:49.929Z,14.02
2018-06-12T01:17:49.922Z,14.08
2018-06-12T01:18:49.912Z,14.09
2018-06-12T01:19:49.912Z,14.09
2018-06-12T01:20:49.902Z,14.13
2018-06-12T01:21:49.900Z,14.11
2018-06-12T01:22:49.895Z,14.11
2018-06-12T01:23:49.892Z,14.12
2018-06-12T01:24:49.882Z,14.19
2018-06-12T01:25:49.874Z,14.13
2018-06-12T01:26:49.868Z,14.16
2018-06-12T01:27:49.865Z,14.12
2018-06-12T01:28:49.601Z,14.15
2018-06-12T01:29:49.850Z,14.05
2018-06-12T01:31:31.786Z,14.09
2018-06-12T01:32:32.302Z,14.13
2018-06-12T01:33:32.291Z,14.09
2018-06-12T01:34:32.031Z,14.16
2018-06-12T01:35:32.274Z,14.06
2018-06-12T01:36:32.276Z,14.03
2018-06-12T01:37:32.266Z,14.09
2018-06-12T01:38:32.256Z,14.08
2018-06-12T01:39:32.272Z,14.09
2018-06-12T01:40:31.991Z,14.11
2018-06-12T01:41:32.240Z,14.15
2018-06-12T01:42:31.983Z,14.13
2018-06-12T01:43:32.231Z,14.09
2018-06-12T01:44:32.224Z,14.06
2018-06-12T01:45:32.224Z,14.12
2018-06-12T01:46:32.214Z,14.13
2018-06-12T01:47:31.950Z,14.09
2018-06-12T01:48:31.947Z,14.09
2018-06-12T01:49:32.195Z,14.16
2018-06-12T01:50:32.194Z,14.11
2018-06-12T01:51:32.185Z,14.12
2018-06-12T01:52:32.177Z,14.08
2018-06-12T01:53:32.170Z,14.08
2018-06-12T01:54:32.169Z,14.03
2018-06-12T01:55:32.160Z,14.15
2018-06-12T01:56:32.158Z,14.12
2018-06-12T01:57:32.151Z,14.11
2018-06-12T01:58:32.142Z,14.03
2018-06-12T01:59:32.137Z,14.06
2018-06-12T02:00:31.875Z,14.11
2018-06-12T02:01:32.130Z,14.03
2018-06-12T02:02:32.124Z,14.13
2018-06-12T02:03:31.910Z,14.11
2018-06-12T02:04:32.110Z,14.15
2018-06-12T02:05:32.113Z,14.15
2018-06-12T02:06:31.589Z,14.09
2018-06-12T02:07:32.094Z,14.12
2018-06-12T02:08:31.831Z,14.12
2018-06-12T02:09:31.825Z,14.03
2018-06-12T02:10:31.818Z,14.06
2018-06-12T02:11:31.814Z,14.06
2018-06-12T02:12:32.065Z,14.02
2018-06-12T02:13:32.055Z,13.97
2018-06-12T02:14:32.046Z,13.97
2018-06-12T02:15:32.043Z,14.02
2018-06-12T02:16:32.041Z,13.95
2018-06-12T02:17:32.032Z,13.94
2018-06-12T02:18:32.026Z,13.91
2018-06-12T02:19:32.024Z,13.95
2018-06-12T02:20:32.016Z,13.87
2018-06-12T02:21:31.751Z,13.93
2018-06-12T02:22:31.748Z,13.86
2018-06-12T02:23:32.003Z,13.87
2018-06-12T02:24:31.999Z,13.9
2018-06-12T02:25:31.984Z,13.84
2018-06-12T02:26:31.980Z,13.83
2018-06-12T02:27:31.720Z,13.83
2018-06-12T02:28:31.971Z,13.86
2018-06-12T02:29:31.959Z,13.86
2018-06-12T02:30:31.708Z,13.84
2018-06-12T02:31:31.695Z,13.87
2018-06-12T02:32:31.686Z,13.81
2018-06-12T02:33:31.683Z,13.84
2018-06-12T02:34:31.936Z,13.87
2018-06-12T02:35:31.683Z,13.88
2018-06-12T02:36:31.924Z,13.86
2018-06-12T02:37:31.916Z,13.79
2018-06-12T02:38:31.910Z,13.91
2018-06-12T02:39:31.905Z,13.88
2018-06-12T02:40:31.894Z,13.91
2018-06-12T02:41:31.894Z,13.9
2018-06-12T02:42:31.636Z,13.86
2018-06-12T02:43:31.876Z,13.88
2018-06-12T02:44:31.970Z,13.87
2018-06-12T02:45:31.883Z,13.9
2018-06-12T02:46:31.874Z,13.9
2018-06-12T02:47:31.599Z,13.93
2018-06-12T02:48:31.597Z,13.9
2018-06-12T02:49:31.586Z,13.94
2018-06-12T02:50:31.850Z,13.95
2018-06-12T02:51:31.573Z,14.02
2018-06-12T02:52:31.829Z,13.99
2018-06-12T02:53:31.827Z,14.02
2018-06-12T02:54:31.813Z,14.02
2018-06-12T02:55:31.550Z,13.99
2018-06-12T02:56:31.800Z,13.94
2018-06-12T02:57:31.540Z,14.05
2018-06-12T02:58:31.793Z,14.06
2018-06-12T02:59:31.528Z,14.05
2018-06-12T03:00:31.265Z,14.06
2018-06-12T03:01:31.784Z,14.09
2018-06-12T03:02:31.774Z,14.08
2018-06-12T03:03:31.503Z,14.13
2018-06-12T03:04:31.753Z,14.05
2018-06-12T03:05:31.791Z,14.09
2018-06-12T03:06:31.740Z,14.12
2018-06-12T03:07:31.745Z,14.15
2018-06-12T03:08:31.733Z,14.16
2018-06-12T03:09:31.469Z,14.06
2018-06-12T03:10:31.719Z,14.08
2018-06-12T03:11:31.462Z,14.12
2018-06-12T03:12:31.450Z,14.09
2018-06-12T03:13:31.449Z,14.09
2018-06-12T03:14:31.705Z,14.15
2018-06-12T03:15:31.436Z,14.11
2018-06-12T03:16:31.435Z,14.12
2018-06-12T03:17:31.423Z,14.06
2018-06-12T03:18:31.675Z,14.09
2018-06-12T03:19:31.670Z,14.06
2018-06-12T03:20:31.403Z,14.09
2018-06-12T03:21:31.661Z,14.05
2018-06-12T03:22:31.645Z,14.16
2018-06-12T03:23:31.654Z,14.13
2018-06-12T03:24:31.637Z,14.06
2018-06-12T03:25:31.635Z,14.05
2018-06-12T03:26:31.372Z,14.03
2018-06-12T03:27:31.624Z,14.13
2018-06-12T03:28:31.611Z,14.01
2018-06-12T03:29:31.096Z,13.99
2018-06-12T03:30:31.620Z,13.91
2018-06-12T03:31:31.341Z,13.95
2018-06-12T03:32:31.593Z,13.93
2018-06-12T03:33:31.583Z,13.91
2018-06-12T03:34:31.319Z,13.91
2018-06-12T03:35:31.573Z,13.87
2018-06-12T03:36:31.306Z,13.81
2018-06-12T03:37:31.300Z,13.88
2018-06-12T03:38:31.550Z,13.81
2018-06-12T03:39:31.555Z,13.86
2018-06-12T03:40:31.567Z,13.78
2018-06-12T03:41:31.023Z,13.81
2018-06-12T03:42:31.532Z,13.87
2018-06-12T03:43:31.528Z,13.84
2018-06-12T03:44:31.522Z,13.87
2018-06-12T03:45:31.511Z,13.84
2018-06-12T03:46:31.503Z,13.87
2018-06-12T03:47:31.242Z,13.83
2018-06-12T03:48:31.494Z,13.93
2018-06-12T03:49:31.231Z,13.91
2018-06-12T03:50:31.488Z,13.9
2018-06-12T03:51:31.474Z,13.91
2018-06-12T03:52:31.475Z,13.95
2018-06-12T03:53:31.462Z,13.95
2018-06-12T03:54:31.201Z,13.97
2018-06-12T03:55:31.458Z,14.03
2018-06-12T03:56:31.445Z,13.99
2018-06-12T03:57:31.538Z,13.95
2018-06-12T03:58:31.433Z,13.93
2018-06-12T03:59:31.438Z,13.94
2018-06-12T04:00:31.467Z,14.05
2018-06-12T04:01:31.419Z,14.09
2018-06-12T04:02:31.153Z,14.03
2018-06-12T04:03:31.151Z,14.08
2018-06-12T04:04:31.144Z,13.97
2018-06-12T04:05:31.134Z,14.01
2018-06-12T04:06:31.135Z,14.02
2018-06-12T04:07:31.381Z,13.95
2018-06-12T04:08:31.379Z,14.01
2018-06-12T04:09:31.178Z,14.01
2018-06-12T04:10:31.382Z,13.99
2018-06-12T04:11:31.357Z,13.97
2018-06-12T04:12:31.347Z,14.05
2018-06-12T04:13:31.087Z,14.06
2018-06-12T04:14:30.822Z,14.11
2018-06-12T04:15:31.338Z,14.03
2018-06-12T04:16:31.325Z,14.13
2018-06-12T04:17:31.061Z,14.2
2018-06-12T04:18:31.308Z,14.15
2018-06-12T04:19:30.795Z,14.13
2018-06-12T04:20:31.497Z,14.16
2018-06-12T04:21:31.294Z,14.23
2018-06-12T04:22:31.289Z,14.33
2018-06-12T04:23:31.280Z,14.31
2018-06-12T04:24:31.281Z,14.31
2018-06-12T04:25:31.276Z,14.27
2018-06-12T04:26:31.007Z,14.33
2018-06-12T04:27:30.747Z,14.33
2018-06-12T04:28:31.308Z,14.28
2018-06-12T04:29:31.244Z,14.46
2018-06-12T04:30:31.245Z,14.39
2018-06-12T04:31:30.984Z,14.39
2018-06-12T04:32:30.974Z,14.42
2018-06-12T04:33:31.226Z,14.44
2018-06-12T04:34:31.227Z,14.56
2018-06-12T04:35:31.219Z,14.48
2018-06-12T04:36:31.208Z,14.51
2018-06-12T04:37:30.951Z,14.49
2018-06-12T04:38:30.940Z,14.49
2018-06-12T04:39:31.190Z,14.41
2018-06-12T04:40:31.189Z,14.48
2018-06-12T04:41:31.186Z,14.39
2018-06-12T04:42:31.176Z,14.42
2018-06-12T04:43:31.273Z,14.31
2018-06-12T04:44:31.164Z,14.36
2018-06-12T04:45:31.161Z,14.36
2018-06-12T04:46:31.160Z,14.39
2018-06-12T04:47:30.892Z,14.42
2018-06-12T04:48:30.890Z,14.49
2018-06-12T04:49:31.144Z,14.52
2018-06-12T04:50:30.876Z,14.49
2018-06-12T04:51:30.868Z,14.48
2018-06-12T04:52:31.120Z,14.48
2018-06-12T04:53:31.116Z,14.49
2018-06-12T04:54:30.597Z,14.49
2018-06-12T04:55:31.104Z,14.51
2018-06-12T04:56:30.841Z,14.52
2018-06-12T04:57:30.578Z,14.53
2018-06-12T04:58:31.089Z,14.56
2018-06-12T04:59:30.822Z,14.46
2018-06-12T05:00:31.076Z,14.52
2018-06-12T05:01:31.080Z,14.46
2018-06-12T05:02:30.816Z,14.59
2018-06-12T05:03:30.802Z,14.67
2018-06-12T05:04:30.795Z,14.67
2018-06-12T05:05:31.049Z,14.66
2018-06-12T05:06:30.789Z,14.7
2018-06-12T05:07:30.780Z,14.7
2018-06-12T05:08:30.775Z,14.64
2018-06-12T05:09:30.513Z,14.66
2018-06-12T05:10:31.140Z,14.67
2018-06-12T05:11:31.012Z,14.69
2018-06-12T05:12:31.011Z,14.63
2018-06-12T05:13:31.006Z,14.67
2018-06-12T05:15:30.739Z,14.67
2018-06-12T05:16:30.992Z,14.69
2018-06-12T05:17:31.010Z,14.69
2018-06-12T05:18:30.719Z,14.74
2018-06-12T05:19:30.973Z,14.67
2018-06-12T05:20:30.715Z,14.66
2018-06-12T05:21:30.964Z,14.7
2018-06-12T05:22:30.954Z,14.74
2018-06-12T05:23:30.956Z,14.75
2018-06-12T05:24:30.689Z,14.64
2018-06-12T05:25:31.010Z,14.69
2018-06-12T05:26:30.684Z,14.66
2018-06-12T05:27:30.935Z,14.69
2018-06-12T05:28:30.924Z,14.64
2018-06-12T05:29:30.929Z,14.61
2018-06-12T05:30:30.911Z,14.64
2018-06-12T05:31:30.926Z,14.7
2018-06-12T05:32:30.903Z,14.61
2018-06-12T05:33:30.641Z,14.59
2018-06-12T05:34:30.891Z,14.49
2018-06-12T05:35:30.884Z,14.53
2018-06-12T05:36:30.630Z,14.52
2018-06-12T05:37:30.877Z,14.51
2018-06-12T05:38:30.869Z,14.52
2018-06-12T05:39:30.610Z,14.49
2018-06-12T05:40:30.866Z,14.46
2018-06-12T05:41:30.596Z,14.6
2018-06-12T05:42:30.847Z,14.52
2018-06-12T05:43:30.850Z,14.51
2018-06-12T05:44:30.577Z,14.46
2018-06-12T05:45:30.578Z,14.52
2018-06-12T05:46:30.830Z,14.51
2018-06-12T05:47:30.824Z,14.48
2018-06-12T05:48:30.564Z,14.33
2018-06-12T05:49:30.557Z,14.31
2018-06-12T05:50:30.807Z,14.36
2018-06-12T05:51:30.800Z,14.3
2018-06-12T05:52:30.796Z,14.33
2018-06-12T05:53:30.793Z,14.41
2018-06-12T05:54:30.527Z,14.27
2018-06-12T05:55:30.523Z,14.31
2018-06-12T05:56:30.522Z,14.39
2018-06-12T05:57:30.765Z,14.33
2018-06-12T05:58:30.801Z,14.33
2018-06-12T05:59:30.755Z,14.26
2018-06-12T06:00:30.752Z,14.31
2018-06-12T06:01:30.742Z,14.28
2018-06-12T06:02:30.750Z,14.3
2018-06-12T06:03:30.741Z,14.28
2018-06-12T06:04:30.476Z,14.28
2018-06-12T06:05:30.724Z,14.27
2018-06-12T06:06:30.715Z,14.3
2018-06-12T06:07:30.708Z,14.24
2018-06-12T06:08:30.705Z,14.16
2018-06-12T06:09:30.443Z,14.09
2018-06-12T06:10:30.695Z,14.11
2018-06-12T06:11:30.435Z,14.09
2018-06-12T06:12:30.434Z,14.15
2018-06-12T06:13:30.722Z,14.2
2018-06-12T06:14:30.414Z,14.21
2018-06-12T06:15:30.413Z,14.3
2018-06-12T06:16:30.661Z,14.33
2018-06-12T06:17:30.409Z,14.34
2018-06-12T06:18:30.657Z,14.31
2018-06-12T06:19:30.387Z,14.34
2018-06-12T06:20:30.383Z,14.45
2018-06-12T06:21:30.117Z,14.31
2018-06-12T06:22:30.789Z,14.39
2018-06-12T06:23:30.623Z,14.33
2018-06-12T06:24:30.362Z,14.3
2018-06-12T06:25:30.603Z,14.33
2018-06-12T06:26:30.606Z,14.27
2018-06-12T06:27:30.360Z,14.31
2018-06-12T06:28:30.335Z,14.26
2018-06-12T06:29:30.330Z,14.41
2018-06-12T06:30:30.579Z,14.34
2018-06-12T06:31:30.585Z,14.46
2018-06-12T06:32:30.312Z,14.46
2018-06-12T06:33:30.309Z,14.39
2018-06-12T06:34:30.557Z,14.31
2018-06-12T06:35:30.561Z,14.31
2018-06-12T06:36:30.033Z,14.34
2018-06-12T06:37:30.287Z,14.38
2018-06-12T06:38:30.535Z,14.31
2018-06-12T06:39:30.268Z,14.31
2018-06-12T06:40:30.524Z,14.42
2018-06-12T06:41:30.268Z,14.45
2018-06-12T06:42:30.516Z,14.51
2018-06-12T06:43:30.507Z,14.41
2018-06-12T06:44:30.507Z,14.49
2018-06-12T06:45:30.506Z,14.48
2018-06-12T06:46:30.232Z,14.52
2018-06-12T06:47:30.232Z,14.45
2018-06-12T06:48:30.483Z,14.61
2018-06-12T06:49:29.959Z,14.6
2018-06-12T06:50:30.467Z,14.6
2018-06-12T06:51:29.948Z,14.61
2018-06-12T06:52:30.454Z,14.66
2018-06-12T06:53:30.474Z,14.77
2018-06-12T06:54:30.188Z,14.67
2018-06-12T06:55:30.444Z,14.85
2018-06-12T06:56:30.431Z,14.82
2018-06-12T06:57:30.171Z,14.83
2018-06-12T06:58:30.165Z,14.85
2018-06-12T06:59:30.421Z,14.9
2018-06-12T07:00:30.156Z,14.98
2018-06-12T07:01:30.152Z,15.02
2018-06-12T07:02:30.401Z,14.94
2018-06-12T07:03:30.395Z,15.05
2018-06-12T07:04:30.132Z,15.07
2018-06-12T07:05:30.394Z,15.13
2018-06-12T07:06:30.382Z,15.15
2018-06-12T07:07:30.377Z,15.19
2018-06-12T07:08:29.858Z,15.22
2018-06-12T07:09:30.372Z,15.25
2018-06-12T07:10:30.104Z,15.2
2018-06-12T07:11:30.355Z,15.37
2018-06-12T07:12:30.351Z,15.3
2018-06-12T07:13:30.347Z,15.43
2018-06-12T07:14:30.084Z,15.45
2018-06-12T07:15:30.077Z,15.52
2018-06-12T07:16:30.109Z,15.65
2018-06-12T07:17:30.328Z,15.77
2018-06-12T07:18:30.322Z,15.89
2018-06-12T07:19:30.312Z,15.95
2018-06-12T07:20:30.310Z,16.04
2018-06-12T07:21:30.057Z,16.14
2018-06-12T07:22:30.043Z,16.25
2018-06-12T07:23:30.042Z,16.16
2018-06-12T07:24:30.035Z,16.1
2018-06-12T07:25:29.774Z,16.21
2018-06-12T07:26:30.027Z,16.25
2018-06-12T07:27:30.284Z,16.13
2018-06-12T07:28:30.272Z,16.07
2018-06-12T07:29:30.013Z,16.06
2018-06-12T07:30:30.265Z,16.06
2018-06-12T07:31:30.267Z,15.92
2018-06-12T07:32:30.269Z,16.04
2018-06-12T07:33:30.254Z,16.04
2018-06-12T07:34:30.252Z,16.02
2018-06-12T07:35:30.243Z,15.92
2018-06-12T07:36:30.236Z,16.06
2018-06-12T07:37:30.116Z,16.04
2018-06-12T07:38:30.232Z,16.06
2018-06-12T07:39:29.971Z,16.02
2018-06-12T07:40:29.964Z,15.96
2018-06-12T07:41:30.217Z,15.86
2018-06-12T07:42:30.215Z,15.75
2018-06-12T07:43:30.335Z,15.59
2018-06-12T07:44:29.955Z,15.51
2018-06-12T07:45:29.945Z,15.4
2018-06-12T07:46:29.950Z,15.34
2018-06-12T07:47:30.198Z,15.12
2018-06-12T07:48:30.191Z,15.1
2018-06-12T07:49:29.924Z,15.01
2018-06-12T07:50:30.180Z,15.1
2018-06-12T07:51:29.929Z,15.15
2018-06-12T07:52:29.914Z,15.25
2018-06-12T07:53:30.169Z,15.27
2018-06-12T07:54:30.158Z,15.33
2018-06-12T07:55:30.155Z,15.26
2018-06-12T07:56:30.151Z,15.33
2018-06-12T07:57:30.142Z,15.33
2018-06-12T07:58:29.885Z,15.41
2018-06-12T07:59:29.623Z,15.43
2018-06-12T08:00:30.144Z,15.55
2018-06-12T08:01:29.869Z,15.52
2018-06-12T08:02:30.126Z,15.53
2018-06-12T08:03:30.117Z,15.56
2018-06-12T08:04:29.861Z,15.58
2018-06-12T08:05:29.854Z,15.49
2018-06-12T08:06:30.105Z,15.52
2018-06-12T08:07:29.846Z,15.52
2018-06-12T08:08:30.097Z,15.51
2018-06-12T08:09:29.833Z,15.56
2018-06-12T08:10:29.835Z,15.59
2018-06-12T08:11:30.082Z,15.55
2018-06-12T08:12:30.079Z,15.53
2018-06-12T08:13:29.562Z,15.63
2018-06-12T08:14:29.813Z,15.71
2018-06-12T08:15:30.064Z,15.78
2018-06-12T08:16:30.060Z,15.92
2018-06-12T08:17:30.059Z,15.91
2018-06-12T08:18:30.061Z,16.21
2018-06-12T08:19:29.792Z,16.36
2018-06-12T08:20:29.789Z,16.42
2018-06-12T08:21:30.037Z,16.52
2018-06-12T08:22:30.038Z,16.62
2018-06-12T08:23:30.030Z,16.69
2018-06-12T08:24:29.771Z,16.7
2018-06-12T08:25:30.023Z,16.66
2018-06-12T08:26:30.029Z,16.69
2018-06-12T08:27:29.757Z,16.69
2018-06-12T08:28:30.009Z,16.8
2018-06-12T08:29:29.804Z,16.77
2018-06-12T08:30:30.254Z,16.8
2018-06-12T08:31:29.999Z,16.88
2018-06-12T08:32:30.001Z,16.99
2018-06-12T08:33:29.735Z,16.99
2018-06-12T08:34:29.984Z,17.02
2018-06-12T08:35:29.781Z,16.99
2018-06-12T08:36:29.726Z,17.07
2018-06-12T08:37:29.975Z,17.06
2018-06-12T08:38:29.718Z,17.06
2018-06-12T08:39:29.971Z,17.1
2018-06-12T08:40:29.970Z,17.06
2018-06-12T08:41:29.965Z,17.07
2018-06-12T08:42:29.958Z,16.99
2018-06-12T08:43:29.957Z,16.94
2018-06-12T08:44:29.697Z,17.02
2018-06-12T08:45:29.957Z,17.07
2018-06-12T08:46:30.062Z,17
2018-06-12T08:47:29.945Z,16.82
2018-06-12T08:48:29.949Z,16.76
2018-06-12T08:49:29.680Z,16.67
2018-06-12T08:50:29.680Z,16.67
2018-06-12T08:51:29.933Z,16.65
2018-06-12T08:52:29.416Z,16.55
2018-06-12T08:53:29.924Z,16.54
2018-06-12T08:54:29.923Z,16.42
2018-06-12T08:55:29.661Z,16.37
2018-06-12T08:56:29.678Z,16.27
2018-06-12T08:57:29.910Z,16.32
2018-06-12T08:58:29.906Z,16.29
2018-06-12T08:59:29.654Z,16.26
2018-06-12T09:00:29.900Z,16.26
2018-06-12T09:01:29.638Z,16.29
2018-06-12T09:02:29.900Z,16.32
2018-06-12T09:03:29.886Z,16.48
2018-06-12T09:04:29.628Z,16.37
2018-06-12T09:05:29.370Z,16.48
2018-06-12T09:06:29.878Z,16.58
2018-06-12T09:07:29.617Z,16.52
2018-06-12T09:08:29.620Z,16.65
2018-06-12T09:09:29.883Z,16.63
2018-06-12T09:10:29.611Z,16.52
2018-06-12T09:11:29.864Z,16.45
2018-06-12T09:12:29.867Z,16.37
2018-06-12T09:13:29.607Z,16.26
2018-06-12T09:14:29.851Z,16.33
2018-06-12T09:15:29.858Z,16.3
2018-06-12T09:16:29.842Z,16.33
2018-06-12T09:17:29.834Z,16.32
2018-06-12T09:18:29.886Z,16.32
2018-06-12T09:19:29.571Z,16.33
2018-06-12T09:20:29.829Z,16.34
2018-06-12T09:21:29.828Z,16.42
2018-06-12T09:22:29.817Z,16.52
2018-06-12T09:23:29.815Z,16.67
2018-06-12T09:24:29.552Z,16.8
2018-06-12T09:25:29.809Z,17.13
2018-06-12T09:26:29.805Z,17.15
2018-06-12T09:27:29.553Z,17.2
2018-06-12T09:28:29.794Z,17.22
2018-06-12T09:29:29.792Z,17.27
2018-06-12T09:30:29.798Z,17.4
2018-06-12T09:31:29.784Z,17.28
2018-06-12T09:32:29.784Z,17.4
2018-06-12T09:33:29.777Z,17.38
2018-06-12T09:34:29.779Z,17.4
2018-06-12T09:35:29.788Z,17.39
2018-06-12T09:36:29.259Z,17.25
2018-06-12T09:37:29.768Z,17.15
2018-06-12T09:38:29.765Z,16.94
2018-06-12T09:39:29.503Z,17.02
2018-06-12T09:40:29.502Z,16.85
2018-06-12T09:41:29.502Z,16.74
2018-06-12T09:42:29.749Z,16.66
2018-06-12T09:43:29.750Z,16.55
2018-06-12T09:44:29.751Z,16.47
2018-06-12T09:45:29.745Z,16.48
2018-06-12T09:46:29.733Z,16.49
2018-06-12T09:47:29.737Z,16.49
2018-06-12T09:48:29.724Z,16.44
2018-06-12T09:49:29.789Z,16.45
2018-06-12T09:50:29.726Z,16.44
2018-06-12T09:51:29.463Z,16.58
2018-06-12T09:52:29.718Z,16.72
2018-06-12T09:53:29.713Z,16.77
2018-06-12T09:54:29.451Z,16.91
2018-06-12T09:55:29.707Z,17
2018-06-12T09:56:29.706Z,17.05
2018-06-12T09:57:29.694Z,17.06
2018-06-12T09:58:29.695Z,17.21
2018-06-12T09:59:29.447Z,17.21
2018-06-12T10:00:29.688Z,17.18
2018-06-12T10:01:29.686Z,17.24
2018-06-12T10:02:29.432Z,17.21
2018-06-12T10:03:29.682Z,17.3
2018-06-12T10:04:29.418Z,17.47
2018-06-12T10:05:29.415Z,17.57
2018-06-12T10:06:29.668Z,17.6
2018-06-12T10:07:29.665Z,17.58
2018-06-12T10:08:29.406Z,17.66
2018-06-12T10:09:29.659Z,17.6
2018-06-12T10:10:29.399Z,17.55
2018-06-12T10:11:29.398Z,17.58
2018-06-12T10:12:29.654Z,17.71
2018-06-12T10:13:29.651Z,17.62
2018-06-12T10:14:29.387Z,17.58
2018-06-12T10:15:29.388Z,17.47
2018-06-12T10:16:29.635Z,17.47
2018-06-12T10:17:29.637Z,17.45
2018-06-12T10:18:29.373Z,17.3
2018-06-12T10:19:29.372Z,17.45
2018-06-12T10:20:29.625Z,17.54
2018-06-12T10:21:29.622Z,17.45
2018-06-12T10:22:29.620Z,17.54
2018-06-12T10:23:29.360Z,17.52
2018-06-12T10:24:29.618Z,17.6
2018-06-12T10:25:29.355Z,17.79
2018-06-12T10:26:29.605Z,17.83
2018-06-12T10:27:29.615Z,17.9
2018-06-12T10:28:29.609Z,17.96
2018-06-12T10:29:29.596Z,18.16
2018-06-12T10:30:29.597Z,18.27
2018-06-12T10:31:29.337Z,18.39
2018-06-12T10:32:29.590Z,18.61
2018-06-12T10:33:29.590Z,18.75
2018-06-12T10:34:29.596Z,18.78
2018-06-12T10:35:29.327Z,18.87
2018-06-12T10:36:29.328Z,18.82
2018-06-12T10:37:29.940Z,18.75
2018-06-12T10:38:29.579Z,18.78
2018-06-12T10:39:29.574Z,18.84
2018-06-12T10:40:29.319Z,18.9
2018-06-12T10:41:29.572Z,19.05
2018-06-12T10:42:29.569Z,19.25
2018-06-12T10:43:29.566Z,19.4
2018-06-12T10:44:29.318Z,19.57
2018-06-12T10:45:29.566Z,19.8
2018-06-12T10:46:29.589Z,19.87
2018-06-12T10:47:29.563Z,19.86
2018-06-12T10:48:29.300Z,19.89
2018-06-12T10:49:29.304Z,19.93
2018-06-12T10:50:29.297Z,20.08
2018-06-12T10:51:29.301Z,20.08
2018-06-12T10:52:29.555Z,19.93
2018-06-12T10:53:29.551Z,20
2018-06-12T10:54:29.291Z,19.95
2018-06-12T10:55:29.035Z,20.02
2018-06-12T10:56:29.612Z,20.04
2018-06-12T10:57:29.600Z,20.05
2018-06-12T10:58:29.555Z,20.15
2018-06-12T10:59:29.293Z,20.27
2018-06-12T11:00:29.545Z,20.32
2018-06-12T11:01:29.542Z,20.37
2018-06-12T11:02:29.542Z,20.41
2018-06-12T11:03:29.574Z,20.42
2018-06-12T11:04:29.544Z,20.51
2018-06-12T11:05:29.543Z,20.49
2018-06-12T11:06:29.540Z,20.49
2018-06-12T11:07:29.535Z,20.64
2018-06-12T11:08:29.542Z,20.79
2018-06-12T11:09:29.281Z,20.82
2018-06-12T11:10:29.535Z,20.78
2018-06-12T11:11:29.538Z,20.85
2018-06-12T11:12:29.536Z,20.81
2018-06-12T11:13:29.537Z,20.88
2018-06-12T11:14:29.537Z,20.93
2018-06-12T11:15:29.535Z,20.96
2018-06-12T11:16:29.535Z,20.96
2018-06-12T11:17:29.535Z,20.97
2018-06-12T11:18:29.280Z,21.01
2018-06-12T11:19:29.530Z,21.01
2018-06-12T11:20:29.274Z,20.93
2018-06-12T11:21:29.533Z,20.79
2018-06-12T11:22:29.541Z,20.72
2018-06-12T11:23:29.533Z,20.6
2018-06-12T11:24:29.024Z,20.6
2018-06-12T11:25:29.532Z,20.6
2018-06-12T11:26:29.528Z,20.54
2018-06-12T11:27:29.274Z,20.46
2018-06-12T11:28:29.534Z,20.49
2018-06-12T11:29:29.276Z,20.46
2018-06-12T11:30:29.020Z,20.44
2018-06-12T11:31:29.276Z,20.46
2018-06-12T11:32:29.275Z,20.42
2018-06-12T11:33:29.531Z,20.54
2018-06-12T11:34:29.020Z,20.63
2018-06-12T11:35:29.531Z,20.72
2018-06-12T11:36:29.020Z,20.96
2018-06-12T11:37:29.541Z,21.04
2018-06-12T11:38:29.540Z,20.97
2018-06-12T11:39:29.278Z,21.13
2018-06-12T11:40:29.275Z,21.09
2018-06-12T11:41:29.274Z,21.15
2018-06-12T11:42:29.534Z,21.09
2018-06-12T11:43:29.536Z,21.28
2018-06-12T11:44:29.279Z,21.21
2018-06-12T11:45:29.529Z,21.27
2018-06-12T11:46:29.533Z,21.45
2018-06-12T11:47:29.540Z,21.38
2018-06-12T11:48:29.537Z,21.41
2018-06-12T11:49:29.276Z,21.25
2018-06-12T11:50:29.536Z,21.04
2018-06-12T11:51:29.534Z,20.74
2018-06-12T11:52:29.533Z,20.49
2018-06-12T11:53:29.277Z,20.19
2018-06-12T11:54:29.277Z,19.98
2018-06-12T11:55:29.277Z,19.72
2018-06-12T11:56:29.534Z,19.56
2018-06-12T11:57:29.534Z,19.46
2018-06-12T11:58:29.530Z,19.43
2018-06-12T11:59:29.531Z,19.52
2018-06-12T12:00:29.277Z,19.42
2018-06-12T12:01:29.532Z,19.38
2018-06-12T12:02:29.537Z,19.42
2018-06-12T12:03:29.534Z,19.45
2018-06-12T12:04:29.533Z,19.42
2018-06-12T12:05:29.281Z,19.38
2018-06-12T12:06:29.272Z,19.57
2018-06-12T12:07:29.270Z,19.53
2018-06-12T12:08:29.524Z,19.55
2018-06-12T12:09:29.266Z,19.49
2018-06-12T12:10:29.269Z,19.52
2018-06-12T12:11:29.524Z,19.47
2018-06-12T12:12:29.598Z,19.42
2018-06-12T12:13:29.525Z,19.42
2018-06-12T12:14:29.524Z,19.46
2018-06-12T12:15:29.264Z,19.42
2018-06-12T12:16:29.530Z,19.52
2018-06-12T12:17:29.512Z,19.43
2018-06-12T12:18:29.260Z,19.47
2018-06-12T12:19:29.257Z,19.55
2018-06-12T12:20:29.515Z,19.52
2018-06-12T12:21:29.545Z,19.42
2018-06-12T12:22:29.257Z,19.32
2018-06-12T12:23:29.601Z,19.24
2018-06-12T12:24:29.509Z,19.2
2018-06-12T12:25:29.511Z,19.07
2018-06-12T12:26:29.510Z,19.05
2018-06-12T12:27:29.506Z,19.12
2018-06-12T12:28:29.508Z,19.05
2018-06-12T12:29:29.505Z,19.09
2018-06-12T12:30:29.501Z,19.05
2018-06-12T12:31:29.243Z,19.13
2018-06-12T12:32:29.500Z,19.15
2018-06-12T12:33:29.496Z,19.16
2018-06-12T12:34:29.496Z,19.28
2018-06-12T12:35:29.494Z,19.28
2018-06-12T12:36:29.490Z,19.37
2018-06-12T12:37:29.236Z,19.35
2018-06-12T12:38:29.237Z,19.46
2018-06-12T12:39:29.231Z,19.47
2018-06-12T12:40:29.233Z,19.47
2018-06-12T12:41:29.489Z,19.53
2018-06-12T12:42:29.485Z,19.61
2018-06-12T12:43:29.482Z,19.5
2018-06-12T12:44:29.230Z,19.53
2018-06-12T12:45:29.488Z,19.46
2018-06-12T12:46:29.231Z,19.42
2018-06-12T12:47:29.479Z,19.49
2018-06-12T12:48:29.634Z,19.52
2018-06-12T12:49:29.223Z,19.46
2018-06-12T12:50:29.474Z,19.55
2018-06-12T12:51:29.217Z,19.38
2018-06-12T12:52:29.481Z,19.3
2018-06-12T12:53:29.471Z,19.27
2018-06-12T12:54:29.219Z,19.2
2018-06-12T12:55:29.469Z,19.25
2018-06-12T12:56:29.216Z,19.19